Time;durP1;ratioP1;P1;durP2;ratioP2;P2;SDS_P1;SDS_P2;PMS_P1;PMS_P2;Temp;Humidity;BMP_temperature;BMP_pressure;BME280_temperature;BME280_humidity;BME280_pressure;Samples;Min_cycle;Max_cycle;Signal;HPM_P1;HPM_P2
2023/06/30 00:00:12;;;;;;;13.38;8.80;;;16.90;76.60;;;;;;5059656;28;20040;-90
2023/06/30 00:02:46;;;;;;;15.65;9.18;;;16.90;76.70;;;;;;5060473;28;20106;-88
2023/06/30 00:05:13;;;;;;;14.00;9.60;;;16.90;76.80;;;;;;5059695;28;20045;-90
2023/06/30 00:07:42;;;;;;;11.70;8.40;;;16.80;76.80;;;;;;5059092;28;20062;-89
2023/06/30 00:10:10;;;;;;;14.30;8.65;;;16.80;76.70;;;;;;5076154;28;20054;-89
2023/06/30 00:12:37;;;;;;;14.05;8.95;;;16.80;76.70;;;;;;5059491;28;20043;-89
2023/06/30 00:15:05;;;;;;;11.73;8.98;;;16.80;76.60;;;;;;5059371;28;20053;-89
2023/06/30 00:17:32;;;;;;;14.23;9.00;;;16.80;76.60;;;;;;5059430;28;20036;-89
2023/06/30 00:20:05;;;;;;;12.15;8.18;;;16.80;76.80;;;;;;5059689;28;20516;-89
2023/06/30 00:22:35;;;;;;;13.10;8.93;;;16.70;76.70;;;;;;5075988;28;20044;-90
2023/06/30 00:25:04;;;;;;;16.20;9.30;;;16.60;77.00;;;;;;5059502;28;20040;-89
2023/06/30 00:27:31;;;;;;;13.73;9.05;;;16.60;77.20;;;;;;5059386;28;20041;-90
2023/06/30 00:29:58;;;;;;;12.73;8.73;;;16.60;77.20;;;;;;5075786;28;20059;-89
2023/06/30 00:32:31;;;;;;;12.25;8.15;;;16.60;77.20;;;;;;5059333;28;20135;-90
2023/06/30 00:34:59;;;;;;;13.05;8.80;;;16.60;77.20;;;;;;5059480;28;20048;-90
2023/06/30 00:37:26;;;;;;;12.85;8.57;;;16.60;77.20;;;;;;5059120;28;20387;-90
2023/06/30 00:39:53;;;;;;;12.07;8.55;;;16.60;77.10;;;;;;5075674;28;20045;-90
2023/06/30 00:42:20;;;;;;;13.60;8.67;;;16.50;77.20;;;;;;5058934;28;20083;-90
2023/06/30 00:44:48;;;;;;;12.82;8.45;;;16.50;77.20;;;;;;5058943;28;20044;-90
2023/06/30 00:47:15;;;;;;;13.35;8.27;;;16.50;77.20;;;;;;5058999;28;20055;-91
2023/06/30 00:49:42;;;;;;;14.00;8.90;;;16.50;77.30;;;;;;5058799;28;20529;-90
2023/06/30 00:52:09;;;;;;;13.98;9.18;;;16.50;77.40;;;;;;5058752;28;20135;-90
2023/06/30 00:54:37;;;;;;;12.80;8.67;;;16.50;77.40;;;;;;5075506;28;20048;-90
2023/06/30 00:57:06;;;;;;;12.20;8.60;;;16.40;77.50;;;;;;5058617;28;20040;-90
2023/06/30 00:59:33;;;;;;;12.90;8.50;;;16.40;77.60;;;;;;5075158;28;20049;-90
2023/06/30 01:02:16;;;;;;;12.88;8.25;;;16.40;77.60;;;;;;5058937;28;20075;-91
2023/06/30 01:05:25;;;;;;;14.00;8.63;;;16.40;77.60;;;;;;5058674;28;20059;-90
2023/06/30 01:08:07;;;;;;;12.37;8.40;;;16.30;77.70;;;;;;5001887;28;20056;-90
2023/06/30 01:10:34;;;;;;;16.95;8.95;;;16.30;77.70;;;;;;5017967;28;20049;-90
2023/06/30 01:13:04;;;;;;;13.40;8.82;;;16.30;77.80;;;;;;5059510;28;20083;-90
2023/06/30 01:15:33;;;;;;;13.75;8.82;;;16.30;77.70;;;;;;5075342;28;20135;-90
2023/06/30 01:18:02;;;;;;;12.82;8.55;;;16.30;77.60;;;;;;5058251;28;20052;-89
2023/06/30 01:20:32;;;;;;;14.57;8.50;;;16.30;77.50;;;;;;5074082;28;20068;-90
2023/06/30 01:23:12;;;;;;;12.70;8.25;;;16.20;77.60;;;;;;5058334;28;20048;-90
2023/06/30 01:25:40;;;;;;;13.55;8.13;;;16.20;77.70;;;;;;5058018;28;20414;-90
2023/06/30 01:28:09;;;;;;;12.85;8.45;;;16.20;77.80;;;;;;5074833;28;20110;-91
2023/06/30 01:30:36;;;;;;;11.30;7.82;;;16.10;77.80;;;;;;5058219;28;20045;-90
2023/06/30 01:33:05;;;;;;;10.97;7.67;;;16.10;77.90;;;;;;5074632;28;20044;-90
2023/06/30 01:35:33;;;;;;;12.82;8.07;;;16.10;77.80;;;;;;5074665;28;20544;-90
2023/06/30 01:38:02;;;;;;;11.65;7.88;;;16.10;77.90;;;;;;5057922;28;20079;-90
2023/06/30 01:40:29;;;;;;;12.75;7.38;;;16.10;77.80;;;;;;5074859;28;20044;-90
2023/06/30 01:42:58;;;;;;;12.55;8.80;;;16.10;77.70;;;;;;5074508;28;20131;-91
2023/06/30 01:45:26;;;;;;;13.43;8.27;;;16.10;77.90;;;;;;5057918;28;20045;-91
2023/06/30 01:47:55;;;;;;;17.30;9.02;;;16.10;78.00;;;;;;5057942;28;20062;-90
2023/06/30 01:50:22;;;;;;;12.60;8.00;;;16.10;78.10;;;;;;5058190;28;20072;-91
2023/06/30 01:52:50;;;;;;;10.65;7.50;;;16.10;77.90;;;;;;5057909;28;20106;-90
2023/06/30 01:55:17;;;;;;;14.05;8.07;;;16.10;77.80;;;;;;5074253;28;20513;-90
2023/06/30 01:57:44;;;;;;;10.57;7.57;;;16.10;77.80;;;;;;5074340;28;20047;-90
2023/06/30 02:00:12;;;;;;;14.82;8.80;;;16.10;77.80;;;;;;5057937;28;20071;-90
2023/06/30 02:02:39;;;;;;;11.30;7.95;;;16.10;77.80;;;;;;5074678;28;20531;-89
2023/06/30 02:05:08;;;;;;;13.68;8.43;;;16.10;77.70;;;;;;5057947;28;20048;-90
2023/06/30 02:07:36;;;;;;;11.27;8.55;;;16.00;77.70;;;;;;5074263;28;20051;-90
2023/06/30 02:10:07;;;;;;;11.83;8.70;;;16.00;78.00;;;;;;5058133;28;20044;-90
2023/06/30 02:12:35;;;;;;;11.43;8.07;;;16.00;78.10;;;;;;5074126;28;20057;-90
2023/06/30 02:15:03;;;;;;;12.25;8.43;;;16.00;78.10;;;;;;5057734;28;20040;-90
2023/06/30 02:17:32;;;;;;;13.70;8.88;;;15.80;78.40;;;;;;5073979;28;20051;-91
2023/06/30 02:20:00;;;;;;;12.50;7.57;;;15.90;78.40;;;;;;5074157;28;20171;-90
2023/06/30 02:22:28;;;;;;;12.00;7.93;;;15.90;78.50;;;;;;5057566;28;20040;-90
2023/06/30 02:24:56;;;;;;;13.45;8.55;;;15.80;78.50;;;;;;5057439;28;20070;-90
2023/06/30 02:27:27;;;;;;;12.95;8.18;;;15.90;78.40;;;;;;5074049;28;20045;-90
2023/06/30 02:30:04;;;;;;;11.77;8.68;;;15.90;78.40;;;;;;5074170;28;20131;-90
2023/06/30 02:32:37;;;;;;;14.43;8.85;;;15.90;78.30;;;;;;5061310;28;20090;-91
2023/06/30 02:35:07;;;;;;;13.57;9.27;;;15.80;78.40;;;;;;5076494;28;20124;-91
2023/06/30 02:37:34;;;;;;;13.40;8.75;;;15.80;78.50;;;;;;5067787;28;20053;-91
2023/06/30 02:40:02;;;;;;;13.05;8.63;;;15.80;78.30;;;;;;5076780;28;20040;-92
2023/06/30 02:42:29;;;;;;;11.90;8.55;;;15.80;78.40;;;;;;5076782;28;20071;-90
2023/06/30 02:44:56;;;;;;;11.80;8.38;;;15.80;78.30;;;;;;5069217;28;20033;-91
2023/06/30 02:47:23;;;;;;;12.60;8.17;;;15.80;78.30;;;;;;5069740;28;20039;-91
2023/06/30 02:49:50;;;;;;;13.23;8.18;;;15.80;78.40;;;;;;5060074;28;20049;-91
2023/06/30 02:52:17;;;;;;;12.88;8.80;;;15.80;78.40;;;;;;5059847;28;20036;-91
2023/06/30 02:54:45;;;;;;;10.95;7.72;;;15.80;78.40;;;;;;5060731;28;20044;-91
2023/06/30 02:57:12;;;;;;;13.10;8.30;;;15.80;78.20;;;;;;5059689;28;20041;-91
2023/06/30 02:59:39;;;;;;;14.30;8.07;;;15.90;78.10;;;;;;5059547;28;20036;-91
2023/06/30 03:02:07;;;;;;;14.35;8.68;;;15.80;78.40;;;;;;5060738;28;20098;-91
2023/06/30 03:04:35;;;;;;;12.23;8.45;;;15.80;78.50;;;;;;5065814;28;20075;-91
2023/06/30 03:07:03;;;;;;;11.88;8.02;;;15.80;78.60;;;;;;5059990;28;20070;-91
2023/06/30 03:09:30;;;;;;;12.68;7.90;;;15.80;78.60;;;;;;5074273;28;20053;-91
2023/06/30 03:11:57;;;;;;;11.50;7.50;;;15.80;78.50;;;;;;5076344;28;20498;-90
2023/06/30 03:14:24;;;;;;;11.95;8.07;;;15.80;78.40;;;;;;5093778;28;20044;-90
2023/06/30 03:16:51;;;;;;;14.07;7.65;;;15.80;78.60;;;;;;5060018;28;20119;-90
2023/06/30 03:19:18;;;;;;;14.85;8.88;;;15.80;78.60;;;;;;5062272;28;20041;-91
2023/06/30 03:21:48;;;;;;;13.38;8.32;;;15.80;78.70;;;;;;5095486;28;20032;-91
2023/06/30 03:24:15;;;;;;;12.37;8.47;;;15.70;78.80;;;;;;5077856;28;20051;-91
2023/06/30 03:26:42;;;;;;;13.30;8.05;;;15.70;79.00;;;;;;5069201;28;20041;-90
2023/06/30 03:29:18;;;;;;;12.07;7.78;;;15.70;79.00;;;;;;5078908;28;20424;-90
2023/06/30 03:31:45;;;;;;;12.13;7.72;;;15.80;78.80;;;;;;5076343;28;20048;-90
2023/06/30 03:34:12;;;;;;;11.13;7.80;;;15.80;78.70;;;;;;5058855;28;20051;-91
2023/06/30 03:36:39;;;;;;;12.97;8.10;;;15.80;78.50;;;;;;5076440;28;20048;-90
2023/06/30 03:39:06;;;;;;;12.38;7.47;;;15.90;78.50;;;;;;5076735;28;20106;-90
2023/06/30 03:41:33;;;;;;;12.18;8.32;;;15.90;78.40;;;;;;5075372;28;20425;-90
2023/06/30 03:44:00;;;;;;;13.75;8.15;;;15.90;78.40;;;;;;5076589;28;20153;-90
2023/06/30 03:46:27;;;;;;;13.38;8.43;;;15.90;78.60;;;;;;5059143;28;20045;-91
2023/06/30 03:48:55;;;;;;;11.37;7.37;;;16.00;78.50;;;;;;5059254;28;20036;-90
2023/06/30 03:51:22;;;;;;;11.73;7.60;;;15.90;78.30;;;;;;5058906;28;20072;-91
2023/06/30 03:53:51;;;;;;;11.00;6.88;;;16.00;78.10;;;;;;5059326;28;20064;-91
2023/06/30 03:56:20;;;;;;;11.93;7.68;;;16.10;77.90;;;;;;5075713;28;20063;-88
2023/06/30 03:58:47;;;;;;;11.40;7.53;;;16.10;77.80;;;;;;5061020;28;20145;-87
2023/06/30 04:01:14;;;;;;;10.37;7.07;;;16.20;77.60;;;;;;5076186;28;20094;-87
2023/06/30 04:03:41;;;;;;;12.80;7.43;;;16.20;77.50;;;;;;5062681;28;20033;-88
2023/06/30 04:06:09;;;;;;;11.10;7.82;;;16.20;77.30;;;;;;5069708;28;20076;-91
2023/06/30 04:08:36;;;;;;;11.82;7.53;;;16.20;77.20;;;;;;5064666;28;20616;-87
2023/06/30 04:11:03;;;;;;;11.27;7.72;;;16.20;77.20;;;;;;5062094;28;20473;-88
2023/06/30 04:13:30;;;;;;;10.47;7.00;;;16.30;77.30;;;;;;5092158;28;20548;-88
2023/06/30 04:15:58;;;;;;;12.00;7.28;;;16.30;77.20;;;;;;5092800;28;20131;-88
2023/06/30 04:18:27;;;;;;;11.68;6.85;;;16.30;77.10;;;;;;5077660;28;20068;-88
2023/06/30 04:20:54;;;;;;;12.30;7.47;;;16.30;77.00;;;;;;5080800;28;20093;-89
2023/06/30 04:23:20;;;;;;;11.95;7.28;;;16.30;77.10;;;;;;5062128;28;20093;-87
2023/06/30 04:25:48;;;;;;;10.93;6.90;;;16.20;77.30;;;;;;5078000;28;20131;-88
2023/06/30 04:28:15;;;;;;;10.55;7.15;;;16.30;77.30;;;;;;5063829;28;20063;-88
2023/06/30 04:30:42;;;;;;;9.65;6.80;;;16.30;77.30;;;;;;5094290;28;20049;-82
2023/06/30 04:33:09;;;;;;;9.85;6.50;;;16.50;77.30;;;;;;5058793;28;20081;-88
2023/06/30 04:35:36;;;;;;;11.27;7.40;;;16.50;77.00;;;;;;5064662;28;20040;-87
2023/06/30 04:38:04;;;;;;;10.13;6.90;;;16.70;76.80;;;;;;5061836;28;20064;-87
2023/06/30 04:40:31;;;;;;;11.98;7.15;;;16.70;76.60;;;;;;5064738;28;20067;-90
2023/06/30 04:43:00;;;;;;;11.40;7.05;;;16.80;76.30;;;;;;5075317;28;20028;-88
2023/06/30 04:45:27;;;;;;;11.00;7.25;;;17.00;76.10;;;;;;5078870;28;20041;-88
2023/06/30 04:47:54;;;;;;;11.95;7.20;;;17.00;75.90;;;;;;5060880;28;20044;-88
2023/06/30 04:50:24;;;;;;;10.73;7.27;;;17.10;75.70;;;;;;5059881;28;20507;-87
2023/06/30 04:52:52;;;;;;;11.35;7.10;;;17.30;75.60;;;;;;5057942;28;20128;-88
2023/06/30 04:55:19;;;;;;;10.45;7.15;;;17.50;75.20;;;;;;5056548;28;20052;-88
2023/06/30 04:57:46;;;;;;;9.95;7.00;;;17.60;74.50;;;;;;5075648;28;20052;-88
2023/06/30 05:00:13;;;;;;;9.70;6.40;;;17.70;74.00;;;;;;5111766;28;20531;-87
2023/06/30 05:02:41;;;;;;;11.03;6.43;;;17.90;74.00;;;;;;5095152;28;20409;-88
2023/06/30 05:05:08;;;;;;;9.77;6.18;;;18.10;73.70;;;;;;5110682;28;20558;-83
2023/06/30 05:07:35;;;;;;;11.15;6.43;;;18.20;72.90;;;;;;5091713;28;20449;-83
2023/06/30 05:10:03;;;;;;;9.63;5.90;;;18.40;72.40;;;;;;5056112;28;20082;-83
2023/06/30 05:12:30;;;;;;;10.57;7.32;;;18.40;71.90;;;;;;5106440;28;20094;-83
2023/06/30 05:14:57;;;;;;;10.50;6.70;;;18.60;72.10;;;;;;5089430;28;20044;-83
2023/06/30 05:17:24;;;;;;;10.73;6.15;;;18.70;71.70;;;;;;5055815;28;20040;-83
2023/06/30 05:19:51;;;;;;;9.20;6.22;;;18.80;71.20;;;;;;5072603;28;20106;-85
2023/06/30 05:22:18;;;;;;;11.43;6.13;;;18.90;70.80;;;;;;5056401;28;20075;-86
2023/06/30 05:24:46;;;;;;;12.75;6.28;;;19.00;70.80;;;;;;5056997;28;20110;-84
2023/06/30 05:27:14;;;;;;;11.47;6.00;;;19.10;70.40;;;;;;5072404;28;20044;-84
2023/06/30 05:29:41;;;;;;;9.38;5.80;;;19.30;70.00;;;;;;5056169;28;20058;-89
2023/06/30 05:32:08;;;;;;;9.60;6.07;;;19.40;70.30;;;;;;5057530;28;20051;-90
2023/06/30 05:34:35;;;;;;;8.75;6.28;;;19.60;69.20;;;;;;5073174;28;20053;-90
2023/06/30 05:37:04;;;;;;;8.52;6.00;;;19.60;69.40;;;;;;5056631;28;20044;-90
2023/06/30 05:39:32;;;;;;;8.47;5.60;;;19.80;68.80;;;;;;5062407;28;20464;-90
2023/06/30 05:41:59;;;;;;;10.82;5.82;;;19.90;68.70;;;;;;5083840;28;20072;-90
2023/06/30 05:44:26;;;;;;;8.90;6.00;;;20.00;68.00;;;;;;5090224;28;20102;-90
2023/06/30 05:46:53;;;;;;;35.83;6.20;;;20.10;68.20;;;;;;5058208;28;20524;-90
2023/06/30 05:49:20;;;;;;;12.52;5.60;;;20.30;67.70;;;;;;5073902;28;20417;-90
2023/06/30 05:51:48;;;;;;;10.50;5.10;;;20.50;66.80;;;;;;5073345;28;20449;-88
2023/06/30 05:54:16;;;;;;;9.13;5.70;;;20.60;66.60;;;;;;5073247;28;20056;-88
2023/06/30 05:56:43;;;;;;;9.15;5.20;;;20.60;66.40;;;;;;5072614;28;20048;-86
2023/06/30 05:59:10;;;;;;;9.85;5.50;;;20.80;66.40;;;;;;5055693;28;20139;-86
2023/06/30 06:01:40;;;;;;;7.93;5.05;;;20.90;65.50;;;;;;5072815;28;20136;-86
2023/06/30 06:04:09;;;;;;;8.23;5.07;;;21.00;66.00;;;;;;5074941;28;20063;-91
2023/06/30 06:06:40;;;;;;;8.07;5.15;;;21.00;64.90;;;;;;5072785;28;20124;-90
2023/06/30 06:09:07;;;;;;;8.05;4.72;;;21.10;65.80;;;;;;5089221;28;20586;-90
2023/06/30 06:11:34;;;;;;;10.13;5.55;;;21.10;65.30;;;;;;5055257;28;20051;-90
2023/06/30 06:14:01;;;;;;;10.52;5.47;;;21.20;64.90;;;;;;5072774;28;20044;-88
2023/06/30 06:16:28;;;;;;;8.20;4.77;;;21.40;65.00;;;;;;5063537;28;20056;-87
2023/06/30 06:18:55;;;;;;;8.48;5.07;;;21.50;63.30;;;;;;5052499;28;20045;-87
2023/06/30 06:21:29;;;;;;;7.35;4.75;;;21.60;64.20;;;;;;5052955;28;20044;-88
2023/06/30 06:23:56;;;;;;;7.53;4.90;;;21.80;63.20;;;;;;5052858;28;20080;-87
2023/06/30 06:26:23;;;;;;;8.40;5.03;;;22.00;63.10;;;;;;5053390;28;20098;-87
2023/06/30 06:28:51;;;;;;;8.43;4.63;;;22.10;63.70;;;;;;5036183;28;20136;-87
2023/06/30 06:31:18;;;;;;;9.07;4.68;;;22.20;62.80;;;;;;5036554;28;20055;-87
2023/06/30 06:33:48;;;;;;;7.85;4.90;;;22.30;61.20;;;;;;5036010;28;20072;-87
2023/06/30 06:36:15;;;;;;;7.20;4.25;;;22.30;61.60;;;;;;5066503;28;20136;-87
2023/06/30 06:38:42;;;;;;;11.23;4.95;;;22.30;61.10;;;;;;5055998;28;20056;-87
2023/06/30 06:41:09;;;;;;;7.73;4.20;;;22.50;61.90;;;;;;5056248;28;20063;-88
2023/06/30 06:43:36;;;;;;;7.85;4.60;;;22.60;60.90;;;;;;5056394;28;20520;-87
2023/06/30 06:46:03;;;;;;;7.57;4.20;;;22.70;60.30;;;;;;5072561;28;20072;-88
2023/06/30 06:48:30;;;;;;;7.53;4.45;;;22.80;59.90;;;;;;5056265;28;20044;-88
2023/06/30 06:51:00;;;;;;;8.00;3.28;;;23.00;60.90;;;;;;5072897;28;20409;-88
2023/06/30 06:53:33;;;;;;;6.80;3.20;;;23.10;61.40;;;;;;5056775;28;20044;-88
2023/06/30 06:56:02;;;;;;;8.15;3.50;;;23.20;59.10;;;;;;5072676;28;20060;-88
2023/06/30 06:58:31;;;;;;;8.35;3.17;;;23.30;58.60;;;;;;5056144;28;20036;-87
2023/06/30 07:00:59;;;;;;;6.05;2.95;;;23.40;58.00;;;;;;5055910;28;20083;-88
2023/06/30 07:03:26;;;;;;;8.05;3.10;;;23.60;59.30;;;;;;5056138;28;20044;-88
2023/06/30 07:05:55;;;;;;;6.93;3.00;;;23.60;58.10;;;;;;5056362;28;20533;-87
2023/06/30 07:08:22;;;;;;;8.45;3.20;;;23.60;57.20;;;;;;5055999;28;20048;-88
2023/06/30 07:10:50;;;;;;;6.07;2.70;;;23.60;57.90;;;;;;5056147;28;20490;-88
2023/06/30 07:13:19;;;;;;;6.72;3.17;;;23.80;57.00;;;;;;5072670;28;20404;-88
2023/06/30 07:15:50;;;;;;;8.38;3.45;;;23.90;55.90;;;;;;5056159;28;20506;-88
2023/06/30 07:18:18;;;;;;;7.33;3.00;;;24.00;56.70;;;;;;5074321;28;20098;-88
2023/06/30 07:20:50;;;;;;;7.10;3.17;;;24.10;56.20;;;;;;5060104;28;20147;-88
2023/06/30 07:23:18;;;;;;;6.97;3.38;;;24.20;57.00;;;;;;5059715;28;20049;-88
2023/06/30 07:25:46;;;;;;;6.97;3.05;;;24.10;55.40;;;;;;5060304;28;20052;-91
2023/06/30 07:28:14;;;;;;;7.95;3.30;;;24.10;56.40;;;;;;5060223;28;20076;-91
2023/06/30 07:30:42;;;;;;;7.23;3.13;;;24.30;58.40;;;;;;5059975;28;20041;-90
2023/06/30 07:33:12;;;;;;;5.45;2.78;;;24.50;58.40;;;;;;5075852;28;20547;-87
2023/06/30 07:35:40;;;;;;;6.60;3.20;;;24.70;57.60;;;;;;5059222;28;20094;-87
2023/06/30 07:38:07;;;;;;;5.95;2.88;;;24.80;57.50;;;;;;5075998;28;20116;-86
2023/06/30 07:40:35;;;;;;;8.15;3.03;;;25.00;55.60;;;;;;5075555;28;20521;-87
2023/06/30 07:43:05;;;;;;;5.53;2.77;;;25.00;54.80;;;;;;5061232;28;20037;-87
2023/06/30 07:45:32;;;;;;;6.18;2.80;;;25.00;54.50;;;;;;5077588;28;20060;-92
2023/06/30 07:47:59;;;;;;;10.10;2.70;;;25.10;55.10;;;;;;5113578;28;20144;-91
2023/06/30 07:50:26;;;;;;;7.82;3.00;;;25.10;54.20;;;;;;5113348;28;20072;-90
2023/06/30 07:52:53;;;;;;;7.35;3.00;;;25.20;53.10;;;;;;5113445;28;20052;-91
2023/06/30 07:55:20;;;;;;;7.60;3.00;;;25.30;54.10;;;;;;5113488;28;20094;-91
2023/06/30 07:57:48;;;;;;;4.82;2.53;;;25.30;53.30;;;;;;5113293;28;20055;-92
2023/06/30 08:00:18;;;;;;;5.82;2.60;;;25.30;54.30;;;;;;5113335;28;20543;-91
2023/06/30 08:02:46;;;;;;;7.82;2.90;;;25.40;54.30;;;;;;5096313;28;20040;-91
2023/06/30 08:05:13;;;;;;;6.72;2.97;;;25.40;53.20;;;;;;5096578;28;20131;-90
2023/06/30 08:07:41;;;;;;;8.93;3.30;;;25.50;54.80;;;;;;5113188;28;20468;-90
2023/06/30 08:10:17;;;;;;;6.30;3.08;;;25.60;55.40;;;;;;5111911;28;20109;-90
2023/06/30 08:12:44;;;;;;;7.43;2.95;;;25.70;52.30;;;;;;5096070;28;20044;-91
2023/06/30 08:15:12;;;;;;;8.75;2.80;;;25.90;53.40;;;;;;5113148;28;20052;-91
2023/06/30 08:17:39;;;;;;;7.75;3.00;;;25.90;51.40;;;;;;5093951;28;20402;-91
2023/06/30 08:20:25;;;;;;;4.87;2.60;;;26.00;52.20;;;;;;5075923;28;20051;-91
2023/06/30 08:22:53;;;;;;;14.20;4.70;;;26.10;53.90;;;;;;5075797;28;20098;-91
2023/06/30 08:25:22;;;;;;;9.50;3.63;;;26.10;49.20;;;;;;5075961;28;20083;-91
2023/06/30 08:27:51;;;;;;;7.43;2.45;;;26.20;50.10;;;;;;5059431;28;20044;-91
2023/06/30 08:30:18;;;;;;;6.20;2.17;;;26.20;46.90;;;;;;5075434;28;20049;-91
2023/06/30 08:32:49;;;;;;;6.03;2.20;;;26.30;48.20;;;;;;5075654;28;20511;-91
2023/06/30 08:35:16;;;;;;;6.45;2.70;;;26.40;49.10;;;;;;5058832;28;20052;-90
2023/06/30 08:37:44;;;;;;;7.28;2.30;;;26.40;49.20;;;;;;5059129;28;20081;-90
2023/06/30 08:40:12;;;;;;;6.50;2.58;;;26.50;49.20;;;;;;5058516;28;20040;-91
2023/06/30 08:42:44;;;;;;;8.43;2.78;;;26.60;49.30;;;;;;5058888;28;20102;-91
2023/06/30 08:45:13;;;;;;;7.60;3.77;;;26.60;50.20;;;;;;5055150;28;20044;-90
2023/06/30 08:47:40;;;;;;;7.43;3.20;;;26.70;47.60;;;;;;5038955;28;20084;-92
2023/06/30 08:50:09;;;;;;;5.60;2.30;;;26.90;46.80;;;;;;5055480;28;20047;-92
2023/06/30 08:52:36;;;;;;;6.18;2.58;;;26.90;47.10;;;;;;5038910;28;20490;-92
2023/06/30 08:55:06;;;;;;;7.75;2.80;;;27.00;49.90;;;;;;5055064;28;20090;-91
2023/06/30 08:57:34;;;;;;;6.53;2.50;;;27.00;48.20;;;;;;5063923;28;20151;-85
2023/06/30 09:00:03;;;;;;;9.88;2.47;;;27.10;47.20;;;;;;5055693;28;20394;-84
2023/06/30 09:02:30;;;;;;;6.72;2.50;;;27.20;48.00;;;;;;5072679;28;20094;-85
2023/06/30 09:04:58;;;;;;;9.05;4.18;;;27.10;45.50;;;;;;5055290;28;20083;-85
2023/06/30 09:07:27;;;;;;;13.90;7.75;;;26.90;46.90;;;;;;5072395;28;20452;-85
2023/06/30 09:09:58;;;;;;;5.57;2.30;;;26.90;47.10;;;;;;5060227;28;20055;-85
2023/06/30 09:12:27;;;;;;;5.97;1.90;;;26.90;45.80;;;;;;5077558;28;20455;-85
2023/06/30 09:15:00;;;;;;;6.88;1.90;;;26.60;46.50;;;;;;5089031;28;20393;-83
2023/06/30 09:17:30;;;;;;;21.92;15.88;;;26.50;45.20;;;;;;5056483;28;20133;-91
2023/06/30 09:19:57;;;;;;;58.33;35.05;;;26.40;46.80;;;;;;5057578;28;20410;-92
2023/06/30 09:22:25;;;;;;;8.20;4.27;;;26.70;47.40;;;;;;5058207;28;20036;-92
2023/06/30 09:25:25;;;;;;;13.63;7.82;;;27.10;47.00;;;;;;5060783;28;20045;-92
2023/06/30 09:27:53;;;;;;;8.07;3.60;;;27.20;46.00;;;;;;5073946;28;20050;-88
2023/06/30 09:30:38;;;;;;;10.98;5.35;;;27.30;45.30;;;;;;5074257;28;20040;-89
2023/06/30 09:33:06;;;;;;;6.15;2.17;;;27.50;42.20;;;;;;5055925;28;20536;-89
2023/06/30 09:35:40;;;;;;;5.93;3.23;;;27.40;44.30;;;;;;5065506;28;20045;-88
2023/06/30 09:38:16;;;;;;;6.53;2.60;;;27.40;43.70;;;;;;5073334;28;20123;-89
2023/06/30 09:40:45;;;;;;;5.88;1.90;;;27.30;43.90;;;;;;5080924;28;20048;-94
2023/06/30 09:43:19;;;;;;;6.50;1.90;;;27.40;43.10;;;;;;5082697;28;20056;-89
2023/06/30 09:45:53;;;;;;;4.80;2.05;;;27.60;42.80;;;;;;5061824;28;20048;-90
2023/06/30 09:48:21;;;;;;;5.70;2.53;;;27.60;43.10;;;;;;5073602;28;20046;-90
2023/06/30 09:50:51;;;;;;;4.88;2.00;;;27.50;47.00;;;;;;5076525;28;20048;-87
2023/06/30 09:53:19;;;;;;;6.53;2.20;;;27.30;46.50;;;;;;5057545;28;20056;-89
2023/06/30 09:55:49;;;;;;;3.65;1.80;;;27.30;45.40;;;;;;5074024;28;20040;-89
2023/06/30 09:58:17;;;;;;;6.82;2.63;;;27.40;44.80;;;;;;5072346;28;20048;-89
2023/06/30 10:00:45;;;;;;;9.33;3.37;;;27.50;44.30;;;;;;5064202;28;20044;-89
2023/06/30 10:03:19;;;;;;;6.47;2.40;;;27.60;43.20;;;;;;5081281;28;20539;-89
2023/06/30 10:05:50;;;;;;;4.78;1.48;;;27.50;42.20;;;;;;5058033;28;20036;-88
2023/06/30 10:08:18;;;;;;;6.43;1.90;;;27.60;44.00;;;;;;5101646;28;20380;-88
2023/06/30 10:10:51;;;;;;;6.05;2.42;;;27.70;44.60;;;;;;5077007;28;20040;-88
2023/06/30 10:13:20;;;;;;;4.67;1.77;;;27.90;43.20;;;;;;5072250;28;20044;-88
2023/06/30 10:15:48;;;;;;;4.55;2.17;;;27.80;43.20;;;;;;5055488;28;20045;-87
2023/06/30 10:18:17;;;;;;;5.95;1.70;;;27.80;42.40;;;;;;5055300;28;20048;-88
2023/06/30 10:20:45;;;;;;;4.53;1.80;;;27.80;42.10;;;;;;5072496;28;20043;-88
2023/06/30 10:23:20;;;;;;;4.97;1.83;;;27.90;42.10;;;;;;5052616;28;20040;-91
2023/06/30 10:25:49;;;;;;;6.53;1.90;;;27.90;42.90;;;;;;5072642;28;20044;-88
2023/06/30 10:28:19;;;;;;;5.07;2.10;;;28.00;41.70;;;;;;5057796;28;20044;-93
2023/06/30 10:30:49;;;;;;;4.43;1.80;;;28.10;41.60;;;;;;5056859;28;20041;-92
2023/06/30 10:33:16;;;;;;;5.63;1.80;;;28.30;42.60;;;;;;5074199;28;20079;-93
2023/06/30 10:35:44;;;;;;;5.88;1.83;;;28.40;43.60;;;;;;5056605;28;20047;-92
2023/06/30 10:38:13;;;;;;;9.53;2.47;;;28.40;42.90;;;;;;5073193;28;20072;-92
2023/06/30 10:40:40;;;;;;;4.22;1.55;;;28.30;43.50;;;;;;5056711;28;20071;-94
2023/06/30 10:43:07;;;;;;;5.05;2.03;;;28.30;42.00;;;;;;5056683;28;20048;-93
2023/06/30 10:45:55;;;;;;;6.32;2.10;;;28.20;40.70;;;;;;5059052;28;20045;-92
2023/06/30 10:48:27;;;;;;;5.95;2.25;;;28.20;44.70;;;;;;5053540;28;20049;-95
2023/06/30 10:50:56;;;;;;;8.27;2.20;;;28.30;45.40;;;;;;5070811;28;20414;-95
2023/06/30 10:53:27;;;;;;;5.95;2.55;;;28.40;46.00;;;;;;5078203;28;20075;-87
2023/06/30 10:55:57;;;;;;;6.35;2.60;;;28.40;46.50;;;;;;5059430;28;20444;-89
2023/06/30 10:58:26;;;;;;;6.10;2.13;;;28.40;48.30;;;;;;5059031;28;20063;-90
2023/06/30 11:01:19;;;;;;;6.10;2.55;;;28.40;46.60;;;;;;5078808;28;20094;-91
2023/06/30 11:03:56;;;;;;;6.40;2.30;;;28.40;44.40;;;;;;5058273;28;20502;-91
2023/06/30 11:06:25;;;;;;;6.28;2.38;;;28.30;45.60;;;;;;5061049;28;20097;-92
2023/06/30 11:09:03;;;;;;;6.00;2.33;;;28.40;45.80;;;;;;5060948;28;20052;-92
2023/06/30 11:11:48;;;;;;;5.18;2.03;;;28.30;42.30;;;;;;5061687;28;20049;-91
2023/06/30 11:14:33;;;;;;;4.38;1.73;;;28.20;46.80;;;;;;5063686;28;20075;-90
2023/06/30 11:17:27;;;;;;;4.97;2.10;;;28.30;44.70;;;;;;5062982;28;20045;-93
2023/06/30 11:20:03;;;;;;;5.18;1.65;;;28.30;40.80;;;;;;5080552;28;20450;-86
2023/06/30 11:22:41;;;;;;;4.35;1.73;;;28.40;42.10;;;;;;5074385;28;20053;-93
2023/06/30 11:25:19;;;;;;;3.80;1.88;;;28.60;40.90;;;;;;5074024;28;20040;-88
2023/06/30 11:27:48;;;;;;;5.28;1.80;;;28.60;41.90;;;;;;5078055;28;20040;-87
2023/06/30 11:30:24;;;;;;;5.53;2.00;;;28.60;42.10;;;;;;5091953;28;20048;-88
2023/06/30 11:32:57;;;;;;;6.93;2.17;;;28.70;43.50;;;;;;5073783;28;20072;-87
2023/06/30 11:35:26;;;;;;;5.97;2.30;;;29.00;43.10;;;;;;5073857;28;20569;-87
2023/06/30 11:37:54;;;;;;;6.78;2.55;;;29.10;44.20;;;;;;5060275;28;20048;-88
2023/06/30 11:40:22;;;;;;;5.13;2.08;;;29.20;43.50;;;;;;5059490;28;20070;-87
2023/06/30 11:42:51;;;;;;;4.83;1.97;;;29.30;43.10;;;;;;5059230;28;20049;-94
2023/06/30 11:45:27;;;;;;;5.88;2.10;;;29.40;40.10;;;;;;5076345;28;20049;-93
2023/06/30 11:47:56;;;;;;;5.53;1.85;;;29.60;41.70;;;;;;5060102;28;20498;-94
2023/06/30 11:50:25;;;;;;;4.60;2.00;;;29.60;41.90;;;;;;5059790;28;20040;-94
2023/06/30 11:52:52;;;;;;;5.10;2.00;;;29.30;40.40;;;;;;5076500;28;20049;-94
2023/06/30 11:55:19;;;;;;;5.93;2.10;;;29.00;43.00;;;;;;5059732;28;20490;-93
2023/06/30 11:57:47;;;;;;;5.13;2.15;;;28.70;43.90;;;;;;5076137;28;20066;-93
2023/06/30 12:00:16;;;;;;;8.02;2.10;;;28.60;47.00;;;;;;5065994;28;20048;-92
2023/06/30 12:02:57;;;;;;;5.72;2.10;;;28.40;46.00;;;;;;5071663;28;20036;-92
2023/06/30 12:05:26;;;;;;;5.72;2.15;;;28.40;43.70;;;;;;5076452;28;20063;-93
2023/06/30 12:07:55;;;;;;;4.97;1.87;;;28.60;42.40;;;;;;5075335;28;20043;-92
2023/06/30 12:10:44;;;;;;;5.22;2.10;;;28.60;44.10;;;;;;5075631;28;20083;-92
2023/06/30 12:13:12;;;;;;;4.82;2.25;;;28.70;47.10;;;;;;5076307;28;20121;-89
2023/06/30 12:15:40;;;;;;;5.25;2.15;;;28.70;47.10;;;;;;5112460;28;20063;-89
2023/06/30 12:18:07;;;;;;;4.30;1.83;;;28.60;46.70;;;;;;5112589;28;20056;-85
2023/06/30 12:20:37;;;;;;;4.43;2.07;;;28.60;46.60;;;;;;5084104;28;20048;-85
2023/06/30 12:23:06;;;;;;;6.75;2.25;;;28.30;46.20;;;;;;5073467;28;20068;-85
2023/06/30 12:25:34;;;;;;;5.05;1.98;;;28.00;47.30;;;;;;5070848;28;20051;-85
2023/06/30 12:28:06;;;;;;;4.38;2.00;;;27.90;49.30;;;;;;5073225;28;20528;-85
2023/06/30 12:30:33;;;;;;;6.80;2.08;;;27.80;46.20;;;;;;5073487;28;20041;-85
2023/06/30 12:33:01;;;;;;;7.23;2.40;;;27.60;47.30;;;;;;5063497;28;20128;-85
2023/06/30 12:35:37;;;;;;;6.68;2.33;;;27.50;46.70;;;;;;5070086;28;20068;-85
2023/06/30 12:38:07;;;;;;;7.00;2.20;;;27.20;47.80;;;;;;5087113;28;20051;-84
2023/06/30 12:40:35;;;;;;;6.55;2.30;;;27.00;47.50;;;;;;5073967;28;20048;-85
2023/06/30 12:43:02;;;;;;;10.10;3.90;;;26.90;47.60;;;;;;5072868;28;20062;-85
2023/06/30 12:45:29;;;;;;;9.30;3.00;;;26.90;47.50;;;;;;5075802;28;20387;-85
2023/06/30 12:47:57;;;;;;;7.60;3.00;;;26.90;49.30;;;;;;5056604;28;20048;-85
2023/06/30 12:50:25;;;;;;;7.18;2.70;;;27.00;48.00;;;;;;5072774;28;20079;-86
2023/06/30 12:52:52;;;;;;;6.85;2.20;;;27.10;49.50;;;;;;5065416;28;20099;-84